sensor_id;sensor_type;location;lat;lon;timestamp;pressure;altitude;pressure_sealevel;temperature;humidity
72558;BME280;60583;50.094;8.748;2023-04-26T00:02:23;100643.97;;;5.78;68.91
72558;BME280;60583;50.094;8.748;2023-04-26T00:04:54;100620.66;;;5.73;68.26
72558;BME280;60583;50.094;8.748;2023-04-26T00:07:26;100641.03;;;5.81;68.87
72558;BME280;60583;50.094;8.748;2023-04-26T00:09:53;100656.91;;;5.81;69.40
72558;BME280;60583;50.094;8.748;2023-04-26T00:12:18;100643.78;;;5.71;69.70
72558;BME280;60583;50.094;8.748;2023-04-26T00:14:44;100664.13;;;5.79;69.94
72558;BME280;60583;50.094;8.748;2023-04-26T00:17:09;100655.44;;;5.87;69.88
72558;BME280;60583;50.094;8.748;2023-04-26T00:19:34;100660.72;;;5.87;70.19
72558;BME280;60583;50.094;8.748;2023-04-26T00:22:01;100665.88;;;5.88;70.71
72558;BME280;60583;50.094;8.748;2023-04-26T00:24:27;100656.25;;;5.87;70.34
72558;BME280;60583;50.094;8.748;2023-04-26T00:26:55;100674.31;;;5.92;70.72
72558;BME280;60583;50.094;8.748;2023-04-26T00:29:21;100666.84;;;5.87;70.18
72558;BME280;60583;50.094;8.748;2023-04-26T00:31:46;100659.50;;;5.73;70.53
72558;BME280;60583;50.094;8.748;2023-04-26T00:34:12;100681.75;;;5.88;70.66
72558;BME280;60583;50.094;8.748;2023-04-26T00:36:37;100669.09;;;5.66;70.88
72558;BME280;60583;50.094;8.748;2023-04-26T00:39:03;100675.00;;;5.60;71.47
72558;BME280;60583;50.094;8.748;2023-04-26T00:41:28;100687.34;;;5.51;71.89
72558;BME280;60583;50.094;8.748;2023-04-26T00:43:53;100684.81;;;5.42;72.61
72558;BME280;60583;50.094;8.748;2023-04-26T00:46:19;100688.25;;;5.34;73.36
72558;BME280;60583;50.094;8.748;2023-04-26T00:48:45;100661.41;;;5.13;73.50
72558;BME280;60583;50.094;8.748;2023-04-26T00:51:11;100691.63;;;5.18;74.38
72558;BME280;60583;50.094;8.748;2023-04-26T00:53:37;100673.94;;;5.11;73.99
72558;BME280;60583;50.094;8.748;2023-04-26T00:56:05;100687.09;;;5.03;74.07
72558;BME280;60583;50.094;8.748;2023-04-26T00:58:32;100677.63;;;4.92;74.66
72558;BME280;60583;50.094;8.748;2023-04-26T01:00:57;100691.81;;;4.91;74.64
72558;BME280;60583;50.094;8.748;2023-04-26T01:03:23;100681.75;;;4.69;74.92
72558;BME280;60583;50.094;8.748;2023-04-26T01:05:49;100683.84;;;4.83;74.78
72558;BME280;60583;50.094;8.748;2023-04-26T01:08:14;100685.13;;;4.79;74.96
72558;BME280;60583;50.094;8.748;2023-04-26T01:10:46;100629.81;;;4.34;75.76
72558;BME280;60583;50.094;8.748;2023-04-26T01:13:12;100670.97;;;4.63;75.67
72558;BME280;60583;50.094;8.748;2023-04-26T01:15:43;100678.44;;;4.67;75.46
72558;BME280;60583;50.094;8.748;2023-04-26T01:18:09;100631.13;;;4.30;75.68
72558;BME280;60583;50.094;8.748;2023-04-26T01:20:35;100648.59;;;4.31;76.18
72558;BME280;60583;50.094;8.748;2023-04-26T01:23:01;100655.25;;;4.35;76.00
72558;BME280;60583;50.094;8.748;2023-04-26T01:25:26;100666.38;;;4.47;76.31
72558;BME280;60583;50.094;8.748;2023-04-26T01:27:52;100664.56;;;4.47;75.99
72558;BME280;60583;50.094;8.748;2023-04-26T01:37:39;100674.22;;;4.39;76.54
72558;BME280;60583;50.094;8.748;2023-04-26T01:40:05;100653.13;;;4.21;76.88
72558;BME280;60583;50.094;8.748;2023-04-26T01:42:31;100671.66;;;4.29;76.62
72558;BME280;60583;50.094;8.748;2023-04-26T01:44:57;100662.84;;;4.21;77.06
72558;BME280;60583;50.094;8.748;2023-04-26T01:47:22;100656.72;;;3.85;78.30
72558;BME280;60583;50.094;8.748;2023-04-26T01:49:48;100658.63;;;3.93;77.80
72558;BME280;60583;50.094;8.748;2023-04-26T01:52:13;100665.09;;;3.98;78.35
72558;BME280;60583;50.094;8.748;2023-04-26T01:54:38;100652.44;;;3.84;78.02
72558;BME280;60583;50.094;8.748;2023-04-26T01:57:04;100658.81;;;3.81;78.41
72558;BME280;60583;50.094;8.748;2023-04-26T01:59:29;100685.38;;;3.98;78.05
72558;BME280;60583;50.094;8.748;2023-04-26T02:01:54;100677.34;;;3.72;79.04
72558;BME280;60583;50.094;8.748;2023-04-26T02:04:20;100652.13;;;3.42;79.88
72558;BME280;60583;50.094;8.748;2023-04-26T02:06:45;100683.25;;;3.56;80.40
72558;BME280;60583;50.094;8.748;2023-04-26T02:09:10;100691.06;;;3.48;80.60
72558;BME280;60583;50.094;8.748;2023-04-26T02:11:36;100684.41;;;3.71;79.18
72558;BME280;60583;50.094;8.748;2023-04-26T02:14:01;100658.94;;;3.62;78.52
72558;BME280;60583;50.094;8.748;2023-04-26T02:16:27;100700.44;;;3.88;78.20
72558;BME280;60583;50.094;8.748;2023-04-26T02:18:52;100693.09;;;3.81;78.48
72558;BME280;60583;50.094;8.748;2023-04-26T02:21:18;100701.31;;;3.78;78.10
72558;BME280;60583;50.094;8.748;2023-04-26T02:23:44;100685.88;;;3.83;78.05
72558;BME280;60583;50.094;8.748;2023-04-26T02:26:10;100659.63;;;3.64;78.15
72558;BME280;60583;50.094;8.748;2023-04-26T02:28:37;100667.72;;;3.53;78.23
72558;BME280;60583;50.094;8.748;2023-04-26T02:31:02;100681.63;;;3.73;77.45
72558;BME280;60583;50.094;8.748;2023-04-26T02:33:28;100699.16;;;3.64;77.70
72558;BME280;60583;50.094;8.748;2023-04-26T02:35:54;100692.91;;;3.65;78.42
72558;BME280;60583;50.094;8.748;2023-04-26T02:38:19;100699.63;;;3.60;78.50
72558;BME280;60583;50.094;8.748;2023-04-26T02:40:44;100699.06;;;3.56;78.68
72558;BME280;60583;50.094;8.748;2023-04-26T02:43:10;100699.56;;;3.42;79.60
72558;BME280;60583;50.094;8.748;2023-04-26T02:45:42;100689.97;;;3.41;79.61
72558;BME280;60583;50.094;8.748;2023-04-26T02:48:07;100681.44;;;3.30;79.45
72558;BME280;60583;50.094;8.748;2023-04-26T02:50:33;100670.34;;;3.26;79.04
72558;BME280;60583;50.094;8.748;2023-04-26T02:52:58;100684.16;;;3.38;78.91
72558;BME280;60583;50.094;8.748;2023-04-26T02:55:24;100654.81;;;3.23;79.05
72558;BME280;60583;50.094;8.748;2023-04-26T02:57:50;100671.97;;;3.37;79.13
72558;BME280;60583;50.094;8.748;2023-04-26T03:00:15;100678.94;;;3.55;78.58
72558;BME280;60583;50.094;8.748;2023-04-26T03:02:41;100660.19;;;3.31;79.05
72558;BME280;60583;50.094;8.748;2023-04-26T03:05:06;100689.41;;;3.47;79.36
72558;BME280;60583;50.094;8.748;2023-04-26T03:07:33;100686.28;;;3.34;79.36
72558;BME280;60583;50.094;8.748;2023-04-26T03:09:59;100678.09;;;3.28;79.71
72558;BME280;60583;50.094;8.748;2023-04-26T03:12:25;100672.59;;;3.21;80.07
72558;BME280;60583;50.094;8.748;2023-04-26T03:14:50;100696.69;;;3.26;80.23
72558;BME280;60583;50.094;8.748;2023-04-26T03:17:15;100651.91;;;2.80;81.09
72558;BME280;60583;50.094;8.748;2023-04-26T03:19:41;100680.88;;;2.80;81.74
72558;BME280;60583;50.094;8.748;2023-04-26T03:22:06;100618.47;;;2.24;82.10
72558;BME280;60583;50.094;8.748;2023-04-26T03:24:31;100695.19;;;2.48;83.78
72558;BME280;60583;50.094;8.748;2023-04-26T03:26:57;100679.22;;;2.59;82.67
72558;BME280;60583;50.094;8.748;2023-04-26T03:29:22;100678.00;;;2.64;82.21
72558;BME280;60583;50.094;8.748;2023-04-26T03:31:47;100629.81;;;2.44;81.88
72558;BME280;60583;50.094;8.748;2023-04-26T03:34:13;100681.69;;;2.80;81.52
72558;BME280;60583;50.094;8.748;2023-04-26T03:36:38;100684.91;;;2.84;81.75
72558;BME280;60583;50.094;8.748;2023-04-26T03:39:04;100668.84;;;2.68;81.37
72558;BME280;60583;50.094;8.748;2023-04-26T03:41:30;100638.66;;;2.52;81.27
72558;BME280;60583;50.094;8.748;2023-04-26T03:43:57;100652.91;;;2.59;81.39
72558;BME280;60583;50.094;8.748;2023-04-26T03:46:22;100689.34;;;2.74;81.70
72558;BME280;60583;50.094;8.748;2023-04-26T03:48:48;100651.28;;;2.39;82.15
72558;BME280;60583;50.094;8.748;2023-04-26T03:51:13;100683.13;;;2.55;82.28
72558;BME280;60583;50.094;8.748;2023-04-26T03:53:39;100676.34;;;2.53;82.39
72558;BME280;60583;50.094;8.748;2023-04-26T03:56:05;100663.88;;;2.55;82.07
72558;BME280;60583;50.094;8.748;2023-04-26T03:58:32;100681.44;;;2.54;81.99
72558;BME280;60583;50.094;8.748;2023-04-26T04:00:57;100692.69;;;2.66;81.10
72558;BME280;60583;50.094;8.748;2023-04-26T04:03:23;100690.72;;;2.68;81.92
72558;BME280;60583;50.094;8.748;2023-04-26T04:05:48;100690.72;;;2.68;81.75
72558;BME280;60583;50.094;8.748;2023-04-26T04:08:13;100689.66;;;2.51;82.46
72558;BME280;60583;50.094;8.748;2023-04-26T04:10:40;100660.69;;;2.32;82.79
72558;BME280;60583;50.094;8.748;2023-04-26T04:13:07;100655.84;;;2.28;82.96
72558;BME280;60583;50.094;8.748;2023-04-26T04:15:32;100687.44;;;2.56;81.96
72558;BME280;60583;50.094;8.748;2023-04-26T04:17:57;100682.84;;;2.58;81.13
72558;BME280;60583;50.094;8.748;2023-04-26T04:20:23;100667.47;;;2.44;81.27
72558;BME280;60583;50.094;8.748;2023-04-26T04:22:48;100688.22;;;2.57;81.06
72558;BME280;60583;50.094;8.748;2023-04-26T04:25:14;100674.41;;;2.36;81.97
72558;BME280;60583;50.094;8.748;2023-04-26T04:27:41;100689.34;;;2.45;81.57
72558;BME280;60583;50.094;8.748;2023-04-26T04:30:08;100683.00;;;2.47;81.39
72558;BME280;60583;50.094;8.748;2023-04-26T04:32:36;100692.38;;;2.59;81.42
72558;BME280;60583;50.094;8.748;2023-04-26T04:35:02;100691.03;;;2.36;81.70
72558;BME280;60583;50.094;8.748;2023-04-26T04:37:27;100695.47;;;2.45;81.50
72558;BME280;60583;50.094;8.748;2023-04-26T04:39:54;100673.16;;;2.40;81.02
72558;BME280;60583;50.094;8.748;2023-04-26T04:42:19;100703.06;;;2.68;80.79
72558;BME280;60583;50.094;8.748;2023-04-26T04:44:45;100669.81;;;2.67;80.12
72558;BME280;60583;50.094;8.748;2023-04-26T04:47:11;100717.44;;;2.83;80.50
72558;BME280;60583;50.094;8.748;2023-04-26T04:49:37;100690.88;;;2.67;80.87
72558;BME280;60583;50.094;8.748;2023-04-26T04:52:03;100709.13;;;2.87;80.67
72558;BME280;60583;50.094;8.748;2023-04-26T04:54:28;100724.75;;;3.08;79.99
72558;BME280;60583;50.094;8.748;2023-04-26T04:56:54;100709.53;;;3.02;79.55
72558;BME280;60583;50.094;8.748;2023-04-26T04:59:19;100723.59;;;3.20;80.17
72558;BME280;60583;50.094;8.748;2023-04-26T05:01:45;100720.41;;;3.26;79.12
72558;BME280;60583;50.094;8.748;2023-04-26T05:04:10;100712.78;;;3.23;79.09
72558;BME280;60583;50.094;8.748;2023-04-26T05:06:35;100735.28;;;3.54;78.96
72558;BME280;60583;50.094;8.748;2023-04-26T05:09:01;100746.88;;;3.71;78.35
72558;BME280;60583;50.094;8.748;2023-04-26T05:11:26;100736.03;;;3.74;78.33
72558;BME280;60583;50.094;8.748;2023-04-26T05:13:52;100741.97;;;3.76;78.03
72558;BME280;60583;50.094;8.748;2023-04-26T05:16:17;100727.50;;;3.62;77.41
72558;BME280;60583;50.094;8.748;2023-04-26T05:18:43;100711.22;;;3.67;77.20
72558;BME280;60583;50.094;8.748;2023-04-26T05:21:08;100739.09;;;3.97;77.82
72558;BME280;60583;50.094;8.748;2023-04-26T05:23:34;100725.81;;;3.88;77.72
72558;BME280;60583;50.094;8.748;2023-04-26T05:26:01;100738.75;;;4.09;77.46
72558;BME280;60583;50.094;8.748;2023-04-26T05:28:26;100748.56;;;4.17;76.48
72558;BME280;60583;50.094;8.748;2023-04-26T05:30:52;100747.47;;;4.37;75.67
72558;BME280;60583;50.094;8.748;2023-04-26T05:33:17;100755.47;;;4.45;75.78
72558;BME280;60583;50.094;8.748;2023-04-26T05:35:42;100743.03;;;4.55;75.30
72558;BME280;60583;50.094;8.748;2023-04-26T05:38:08;100726.50;;;4.53;74.69
72558;BME280;60583;50.094;8.748;2023-04-26T05:40:33;100745.72;;;4.81;74.81
72558;BME280;60583;50.094;8.748;2023-04-26T05:42:59;100763.97;;;4.92;74.57
72558;BME280;60583;50.094;8.748;2023-04-26T05:45:24;100735.13;;;4.98;73.31
72558;BME280;60583;50.094;8.748;2023-04-26T05:47:49;100744.97;;;5.14;73.86
72558;BME280;60583;50.094;8.748;2023-04-26T05:50:16;100763.97;;;5.35;72.87
72558;BME280;60583;50.094;8.748;2023-04-26T05:52:41;100754.59;;;5.41;72.65
72558;BME280;60583;50.094;8.748;2023-04-26T05:55:07;100720.16;;;5.33;72.73
72558;BME280;60583;50.094;8.748;2023-04-26T05:57:33;100756.72;;;5.71;72.62
72558;BME280;60583;50.094;8.748;2023-04-26T05:59:59;100765.78;;;5.94;72.75
72558;BME280;60583;50.094;8.748;2023-04-26T06:02:25;100765.81;;;6.02;71.25
72558;BME280;60583;50.094;8.748;2023-04-26T06:04:50;100770.84;;;6.29;71.34
72558;BME280;60583;50.094;8.748;2023-04-26T06:07:16;100768.06;;;6.31;70.86
72558;BME280;60583;50.094;8.748;2023-04-26T06:09:41;100767.41;;;6.45;70.49
72558;BME280;60583;50.094;8.748;2023-04-26T06:12:07;100778.91;;;6.62;70.78
72558;BME280;60583;50.094;8.748;2023-04-26T06:14:34;100784.38;;;6.76;69.54
72558;BME280;60583;50.094;8.748;2023-04-26T06:17:00;100780.06;;;6.75;68.91
72558;BME280;60583;50.094;8.748;2023-04-26T06:19:26;100759.00;;;6.58;69.52
72558;BME280;60583;50.094;8.748;2023-04-26T06:21:51;100756.22;;;6.59;68.91
72558;BME280;60583;50.094;8.748;2023-04-26T06:24:19;100774.09;;;7.05;69.01
72558;BME280;60583;50.094;8.748;2023-04-26T06:26:44;100781.06;;;7.15;67.96
72558;BME280;60583;50.094;8.748;2023-04-26T06:29:10;100785.88;;;7.27;67.58
72558;BME280;60583;50.094;8.748;2023-04-26T06:31:35;100787.00;;;7.49;67.83
72558;BME280;60583;50.094;8.748;2023-04-26T06:34:01;100760.97;;;7.52;66.33
72558;BME280;60583;50.094;8.748;2023-04-26T06:36:27;100742.22;;;7.46;65.95
72558;BME280;60583;50.094;8.748;2023-04-26T06:38:53;100792.16;;;7.18;66.51
72558;BME280;60583;50.094;8.748;2023-04-26T06:41:18;100796.31;;;7.37;66.81
72558;BME280;60583;50.094;8.748;2023-04-26T06:43:44;100788.78;;;7.64;66.96
72558;BME280;60583;50.094;8.748;2023-04-26T06:46:09;100783.03;;;8.00;65.85
72558;BME280;60583;50.094;8.748;2023-04-26T06:48:35;100795.53;;;8.22;66.10
72558;BME280;60583;50.094;8.748;2023-04-26T06:51:06;100776.75;;;8.31;63.98
72558;BME280;60583;50.094;8.748;2023-04-26T06:53:33;100786.00;;;8.66;63.74
72558;BME280;60583;50.094;8.748;2023-04-26T06:55:58;100791.22;;;8.82;63.98
72558;BME280;60583;50.094;8.748;2023-04-26T06:58:24;100796.31;;;8.69;62.08
72558;BME280;60583;50.094;8.748;2023-04-26T07:00:49;100761.06;;;8.14;62.50
72558;BME280;60583;50.094;8.748;2023-04-26T07:03:15;100791.28;;;8.74;63.13
72558;BME280;60583;50.094;8.748;2023-04-26T07:05:40;100794.84;;;8.89;62.60
72558;BME280;60583;50.094;8.748;2023-04-26T07:08:06;100763.81;;;8.82;60.88
72558;BME280;60583;50.094;8.748;2023-04-26T07:10:31;100745.38;;;8.80;60.89
72558;BME280;60583;50.094;8.748;2023-04-26T07:12:57;100767.94;;;8.84;61.12
72558;BME280;60583;50.094;8.748;2023-04-26T07:15:22;100762.91;;;9.12;61.88
72558;BME280;60583;50.094;8.748;2023-04-26T07:17:47;100745.25;;;8.74;60.58
72558;BME280;60583;50.094;8.748;2023-04-26T07:20:13;100797.97;;;8.93;61.33
72558;BME280;60583;50.094;8.748;2023-04-26T07:22:43;100775.88;;;8.92;62.47
72558;BME280;60583;50.094;8.748;2023-04-26T07:25:09;100789.38;;;9.28;61.41
72558;BME280;60583;50.094;8.748;2023-04-26T07:27:34;100788.28;;;9.52;60.62
72558;BME280;60583;50.094;8.748;2023-04-26T07:29:59;100781.56;;;9.27;60.70
72558;BME280;60583;50.094;8.748;2023-04-26T07:32:25;100784.22;;;9.27;59.02
72558;BME280;60583;50.094;8.748;2023-04-26T07:34:50;100760.47;;;9.40;60.78
72558;BME280;60583;50.094;8.748;2023-04-26T07:37:16;100766.91;;;9.75;58.68
72558;BME280;60583;50.094;8.748;2023-04-26T07:39:41;100779.31;;;10.11;59.10
72558;BME280;60583;50.094;8.748;2023-04-26T07:42:06;100780.31;;;10.25;56.77
72558;BME280;60583;50.094;8.748;2023-04-26T07:44:32;100758.84;;;10.48;56.95
72558;BME280;60583;50.094;8.748;2023-04-26T07:46:57;100778.44;;;10.76;55.23
72558;BME280;60583;50.094;8.748;2023-04-26T07:49:22;100757.44;;;10.31;55.09
72558;BME280;60583;50.094;8.748;2023-04-26T07:51:48;100757.16;;;10.61;56.52
72558;BME280;60583;50.094;8.748;2023-04-26T07:54:15;100755.03;;;10.36;55.53
72558;BME280;60583;50.094;8.748;2023-04-26T07:56:41;100772.94;;;10.63;55.04
72558;BME280;60583;50.094;8.748;2023-04-26T07:59:06;100780.69;;;10.58;54.38
72558;BME280;60583;50.094;8.748;2023-04-26T08:01:32;100730.72;;;10.45;53.24
72558;BME280;60583;50.094;8.748;2023-04-26T08:03:58;100776.00;;;10.60;53.68
72558;BME280;60583;50.094;8.748;2023-04-26T08:06:23;100767.47;;;11.13;54.87
72558;BME280;60583;50.094;8.748;2023-04-26T08:08:49;100774.50;;;11.42;52.42
72558;BME280;60583;50.094;8.748;2023-04-26T08:11:15;100755.19;;;11.12;50.32
72558;BME280;60583;50.094;8.748;2023-04-26T08:13:41;100767.06;;;11.37;49.74
72558;BME280;60583;50.094;8.748;2023-04-26T08:16:08;100760.56;;;11.46;50.71
72558;BME280;60583;50.094;8.748;2023-04-26T08:18:34;100774.38;;;11.84;49.88
72558;BME280;60583;50.094;8.748;2023-04-26T08:21:00;100773.75;;;11.54;47.08
72558;BME280;60583;50.094;8.748;2023-04-26T08:23:25;100779.75;;;11.91;47.84
72558;BME280;60583;50.094;8.748;2023-04-26T08:25:50;100779.06;;;12.10;48.83
72558;BME280;60583;50.094;8.748;2023-04-26T08:28:16;100767.69;;;11.67;47.38
72558;BME280;60583;50.094;8.748;2023-04-26T08:30:41;100750.19;;;11.92;47.50
72558;BME280;60583;50.094;8.748;2023-04-26T08:33:08;100774.34;;;12.18;45.17
72558;BME280;60583;50.094;8.748;2023-04-26T08:35:33;100723.19;;;11.81;47.01
72558;BME280;60583;50.094;8.748;2023-04-26T08:37:59;100729.63;;;11.31;47.10
72558;BME280;60583;50.094;8.748;2023-04-26T08:40:25;100769.44;;;11.53;48.50
72558;BME280;60583;50.094;8.748;2023-04-26T08:42:50;100729.44;;;11.67;48.58
72558;BME280;60583;50.094;8.748;2023-04-26T08:45:18;100767.97;;;12.13;47.90
72558;BME280;60583;50.094;8.748;2023-04-26T08:47:49;100767.75;;;12.08;48.11
72558;BME280;60583;50.094;8.748;2023-04-26T08:50:21;100763.69;;;12.25;46.18
72558;BME280;60583;50.094;8.748;2023-04-26T08:52:51;100742.56;;;12.56;46.05
72558;BME280;60583;50.094;8.748;2023-04-26T08:55:18;100743.84;;;12.87;46.05
72558;BME280;60583;50.094;8.748;2023-04-26T08:57:48;100741.91;;;12.41;43.13
72558;BME280;60583;50.094;8.748;2023-04-26T09:00:17;100765.38;;;12.39;46.34
72558;BME280;60583;50.094;8.748;2023-04-26T09:02:50;100760.28;;;12.51;45.32
72558;BME280;60583;50.094;8.748;2023-04-26T09:05:20;100749.06;;;12.21;44.22
72558;BME280;60583;50.094;8.748;2023-04-26T09:07:53;100740.47;;;12.32;45.69
72558;BME280;60583;50.094;8.748;2023-04-26T09:10:20;100720.66;;;12.13;45.09
72558;BME280;60583;50.094;8.748;2023-04-26T09:12:50;100742.59;;;12.63;45.26
72558;BME280;60583;50.094;8.748;2023-04-26T09:15:16;100713.69;;;11.72;45.60
72558;BME280;60583;50.094;8.748;2023-04-26T09:17:42;100729.34;;;11.81;45.58
72558;BME280;60583;50.094;8.748;2023-04-26T09:20:28;100682.97;;;11.54;46.90
72558;BME280;60583;50.094;8.748;2023-04-26T09:23:08;100744.22;;;11.90;48.69
72558;BME280;60583;50.094;8.748;2023-04-26T09:25:34;100736.00;;;11.58;46.49
72558;BME280;60583;50.094;8.748;2023-04-26T09:28:00;100742.22;;;11.37;47.76
72558;BME280;60583;50.094;8.748;2023-04-26T09:30:27;100753.66;;;11.59;46.92
72558;BME280;60583;50.094;8.748;2023-04-26T09:35:32;100751.47;;;12.03;46.84
72558;BME280;60583;50.094;8.748;2023-04-26T09:37:58;100749.53;;;12.44;44.80
72558;BME280;60583;50.094;8.748;2023-04-26T09:40:27;100719.34;;;12.76;45.11
72558;BME280;60583;50.094;8.748;2023-04-26T09:43:07;100740.94;;;12.55;45.35
72558;BME280;60583;50.094;8.748;2023-04-26T09:50:47;100733.72;;;12.49;44.87
72558;BME280;60583;50.094;8.748;2023-04-26T09:56:22;100744.47;;;12.08;45.17
72558;BME280;60583;50.094;8.748;2023-04-26T09:58:58;100712.00;;;12.05;45.94
72558;BME280;60583;50.094;8.748;2023-04-26T10:01:26;100715.69;;;12.04;46.20
72558;BME280;60583;50.094;8.748;2023-04-26T10:03:58;100738.34;;;12.08;45.82
72558;BME280;60583;50.094;8.748;2023-04-26T10:06:26;100726.75;;;12.01;45.17
72558;BME280;60583;50.094;8.748;2023-04-26T10:08:53;100726.34;;;11.63;46.00
72558;BME280;60583;50.094;8.748;2023-04-26T10:11:20;100714.19;;;11.61;45.69
72558;BME280;60583;50.094;8.748;2023-04-26T10:13:45;100733.72;;;11.89;45.15
72558;BME280;60583;50.094;8.748;2023-04-26T10:16:11;100728.38;;;11.89;45.39
72558;BME280;60583;50.094;8.748;2023-04-26T10:18:36;100722.84;;;11.28;47.15
72558;BME280;60583;50.094;8.748;2023-04-26T10:21:29;100721.44;;;11.32;46.31
72558;BME280;60583;50.094;8.748;2023-04-26T10:23:58;100720.38;;;11.27;46.12
72558;BME280;60583;50.094;8.748;2023-04-26T10:26:49;100724.84;;;11.20;45.25
72558;BME280;60583;50.094;8.748;2023-04-26T10:29:30;100731.22;;;11.25;45.89
72558;BME280;60583;50.094;8.748;2023-04-26T10:32:11;100714.44;;;11.31;45.56
72558;BME280;60583;50.094;8.748;2023-04-26T10:34:40;100727.25;;;11.42;45.80
72558;BME280;60583;50.094;8.748;2023-04-26T10:37:10;100726.94;;;11.59;44.99
72558;BME280;60583;50.094;8.748;2023-04-26T10:39:40;100723.59;;;12.25;44.44
72558;BME280;60583;50.094;8.748;2023-04-26T10:42:19;100703.44;;;12.29;43.91
72558;BME280;60583;50.094;8.748;2023-04-26T10:44:49;100696.91;;;12.84;43.79
72558;BME280;60583;50.094;8.748;2023-04-26T10:47:34;100708.50;;;13.11;43.01
72558;BME280;60583;50.094;8.748;2023-04-26T10:50:07;100701.44;;;12.57;42.56
72558;BME280;60583;50.094;8.748;2023-04-26T10:55:38;100688.44;;;12.28;43.03
72558;BME280;60583;50.094;8.748;2023-04-26T10:58:28;100697.72;;;12.71;43.11
72558;BME280;60583;50.094;8.748;2023-04-26T11:01:06;100688.88;;;12.58;42.28
72558;BME280;60583;50.094;8.748;2023-04-26T11:03:32;100692.75;;;12.49;42.67
72558;BME280;60583;50.094;8.748;2023-04-26T11:05:58;100659.78;;;11.62;44.10
72558;BME280;60583;50.094;8.748;2023-04-26T11:08:28;100688.50;;;11.87;45.56
72558;BME280;60583;50.094;8.748;2023-04-26T11:13:40;100677.69;;;11.68;45.11
72558;BME280;60583;50.094;8.748;2023-04-26T11:16:19;100686.09;;;11.65;44.63
72558;BME280;60583;50.094;8.748;2023-04-26T11:18:55;100688.09;;;11.97;45.47
72558;BME280;60583;50.094;8.748;2023-04-26T11:21:20;100680.16;;;12.16;45.01
72558;BME280;60583;50.094;8.748;2023-04-26T11:23:53;100677.91;;;12.20;42.49
72558;BME280;60583;50.094;8.748;2023-04-26T11:26:23;100680.44;;;12.67;40.83
72558;BME280;60583;50.094;8.748;2023-04-26T11:28:55;100669.75;;;13.07;40.51
72558;BME280;60583;50.094;8.748;2023-04-26T11:31:39;100672.44;;;13.07;40.21
72558;BME280;60583;50.094;8.748;2023-04-26T11:34:05;100661.72;;;13.26;41.08
72558;BME280;60583;50.094;8.748;2023-04-26T11:36:30;100668.81;;;13.65;40.92
72558;BME280;60583;50.094;8.748;2023-04-26T11:38:57;100638.63;;;13.83;41.12
72558;BME280;60583;50.094;8.748;2023-04-26T11:41:22;100641.91;;;13.91;39.05
72558;BME280;60583;50.094;8.748;2023-04-26T11:43:48;100631.00;;;14.18;38.62
72558;BME280;60583;50.094;8.748;2023-04-26T11:46:14;100650.94;;;14.91;39.18
72558;BME280;60583;50.094;8.748;2023-04-26T11:48:41;100652.69;;;16.12;36.96
72558;BME280;60583;50.094;8.748;2023-04-26T11:51:07;100651.59;;;16.02;37.23
72558;BME280;60583;50.094;8.748;2023-04-26T11:53:40;100635.59;;;16.48;34.92
72558;BME280;60583;50.094;8.748;2023-04-26T11:56:19;100636.22;;;16.62;33.75
72558;BME280;60583;50.094;8.748;2023-04-26T11:58:52;100639.91;;;17.13;34.55
72558;BME280;60583;50.094;8.748;2023-04-26T12:01:24;100645.09;;;17.90;31.98
72558;BME280;60583;50.094;8.748;2023-04-26T12:03:52;100623.22;;;17.63;31.25
72558;BME280;60583;50.094;8.748;2023-04-26T12:06:18;100628.56;;;16.88;32.02
72558;BME280;60583;50.094;8.748;2023-04-26T12:08:48;100647.19;;;17.01;33.93
72558;BME280;60583;50.094;8.748;2023-04-26T12:11:15;100635.91;;;16.70;32.72
72558;BME280;60583;50.094;8.748;2023-04-26T12:13:41;100635.78;;;16.65;31.06
72558;BME280;60583;50.094;8.748;2023-04-26T12:16:07;100650.69;;;17.13;31.75
72558;BME280;60583;50.094;8.748;2023-04-26T12:18:33;100640.03;;;17.18;30.99
72558;BME280;60583;50.094;8.748;2023-04-26T12:20:59;100644.47;;;17.36;31.40
72558;BME280;60583;50.094;8.748;2023-04-26T12:23:25;100644.25;;;17.26;30.59
72558;BME280;60583;50.094;8.748;2023-04-26T12:25:54;100635.78;;;17.22;31.38
72558;BME280;60583;50.094;8.748;2023-04-26T12:28:21;100611.13;;;16.38;30.63
72558;BME280;60583;50.094;8.748;2023-04-26T12:30:47;100633.00;;;17.06;32.35
72558;BME280;60583;50.094;8.748;2023-04-26T12:33:12;100623.38;;;16.87;32.34
72558;BME280;60583;50.094;8.748;2023-04-26T12:35:38;100600.56;;;17.01;33.22
72558;BME280;60583;50.094;8.748;2023-04-26T12:38:04;100619.88;;;16.75;34.14
72558;BME280;60583;50.094;8.748;2023-04-26T12:40:29;100633.31;;;15.92;35.73
72558;BME280;60583;50.094;8.748;2023-04-26T12:42:55;100626.00;;;15.26;35.90
72558;BME280;60583;50.094;8.748;2023-04-26T12:45:24;100605.75;;;14.63;37.54
72558;BME280;60583;50.094;8.748;2023-04-26T12:47:52;100626.34;;;14.94;36.07
72558;BME280;60583;50.094;8.748;2023-04-26T12:50:18;100622.72;;;15.24;36.59
72558;BME280;60583;50.094;8.748;2023-04-26T12:52:44;100628.81;;;14.08;36.62
72558;BME280;60583;50.094;8.748;2023-04-26T12:55:11;100638.88;;;14.50;38.44
72558;BME280;60583;50.094;8.748;2023-04-26T12:57:38;100624.91;;;14.42;35.69
72558;BME280;60583;50.094;8.748;2023-04-26T13:00:05;100619.66;;;14.53;36.25
72558;BME280;60583;50.094;8.748;2023-04-26T13:02:31;100630.22;;;14.73;35.70
72558;BME280;60583;50.094;8.748;2023-04-26T13:04:59;100602.28;;;14.56;35.00
72558;BME280;60583;50.094;8.748;2023-04-26T13:07:26;100606.81;;;14.62;34.80
72558;BME280;60583;50.094;8.748;2023-04-26T13:09:51;100616.88;;;14.42;35.52
72558;BME280;60583;50.094;8.748;2023-04-26T13:12:17;100615.34;;;14.77;37.05
72558;BME280;60583;50.094;8.748;2023-04-26T13:14:42;100623.91;;;14.67;37.60
72558;BME280;60583;50.094;8.748;2023-04-26T13:17:08;100618.13;;;14.64;36.55
72558;BME280;60583;50.094;8.748;2023-04-26T13:19:34;100624.84;;;14.73;36.54